sensor_id;sensor_type;location;lat;lon;timestamp;P1;durP1;ratioP1;P2;durP2;ratioP2
46875;SDS011;32866;50.160;14.768;2023-04-09T00:00:43;36.85;;;21.40;;
46875;SDS011;32866;50.160;14.768;2023-04-09T00:03:09;31.88;;;21.52;;
46875;SDS011;32866;50.160;14.768;2023-04-09T00:05:38;36.67;;;20.63;;
46875;SDS011;32866;50.160;14.768;2023-04-09T00:08:04;33.63;;;21.43;;
46875;SDS011;32866;50.160;14.768;2023-04-09T00:10:30;35.22;;;21.30;;
46875;SDS011;32866;50.160;14.768;2023-04-09T00:12:58;38.60;;;22.92;;
46875;SDS011;32866;50.160;14.768;2023-04-09T00:15:24;33.93;;;21.80;;
46875;SDS011;32866;50.160;14.768;2023-04-09T00:17:49;37.60;;;20.98;;
46875;SDS011;32866;50.160;14.768;2023-04-09T00:20:15;33.67;;;20.63;;
46875;SDS011;32866;50.160;14.768;2023-04-09T00:22:41;29.63;;;18.30;;
46875;SDS011;32866;50.160;14.768;2023-04-09T00:25:06;39.63;;;22.02;;
46875;SDS011;32866;50.160;14.768;2023-04-09T00:27:32;38.55;;;21.38;;
46875;SDS011;32866;50.160;14.768;2023-04-09T00:29:57;33.30;;;19.92;;
46875;SDS011;32866;50.160;14.768;2023-04-09T00:32:22;34.15;;;20.35;;
46875;SDS011;32866;50.160;14.768;2023-04-09T00:34:48;33.72;;;21.00;;
46875;SDS011;32866;50.160;14.768;2023-04-09T00:37:14;35.55;;;20.67;;
46875;SDS011;32866;50.160;14.768;2023-04-09T00:39:39;34.55;;;20.60;;
46875;SDS011;32866;50.160;14.768;2023-04-09T00:42:05;31.75;;;20.50;;
46875;SDS011;32866;50.160;14.768;2023-04-09T00:44:30;37.67;;;22.30;;
46875;SDS011;32866;50.160;14.768;2023-04-09T00:46:55;39.22;;;21.88;;
46875;SDS011;32866;50.160;14.768;2023-04-09T00:49:23;42.33;;;23.87;;
46875;SDS011;32866;50.160;14.768;2023-04-09T00:51:50;42.80;;;21.57;;
46875;SDS011;32866;50.160;14.768;2023-04-09T00:54:15;41.60;;;23.50;;
46875;SDS011;32866;50.160;14.768;2023-04-09T00:56:41;36.30;;;21.75;;
46875;SDS011;32866;50.160;14.768;2023-04-09T00:59:07;38.22;;;23.48;;
46875;SDS011;32866;50.160;14.768;2023-04-09T01:01:32;40.38;;;23.40;;
46875;SDS011;32866;50.160;14.768;2023-04-09T01:03:58;41.50;;;23.52;;
46875;SDS011;32866;50.160;14.768;2023-04-09T01:06:27;34.38;;;22.63;;
46875;SDS011;32866;50.160;14.768;2023-04-09T01:09:29;31.87;;;20.50;;
46875;SDS011;32866;50.160;14.768;2023-04-09T01:14:27;34.00;;;21.60;;
46875;SDS011;32866;50.160;14.768;2023-04-09T01:17:06;32.35;;;20.20;;
46875;SDS011;32866;50.160;14.768;2023-04-09T01:22:41;37.27;;;21.80;;
46875;SDS011;32866;50.160;14.768;2023-04-09T01:25:42;36.17;;;22.13;;
46875;SDS011;32866;50.160;14.768;2023-04-09T01:30:56;32.97;;;21.13;;
46875;SDS011;32866;50.160;14.768;2023-04-09T01:33:25;35.27;;;20.43;;
46875;SDS011;32866;50.160;14.768;2023-04-09T01:35:53;34.23;;;21.97;;
46875;SDS011;32866;50.160;14.768;2023-04-09T01:38:19;37.90;;;22.80;;
46875;SDS011;32866;50.160;14.768;2023-04-09T01:40:47;35.83;;;23.50;;
46875;SDS011;32866;50.160;14.768;2023-04-09T01:43:14;29.20;;;19.87;;
46875;SDS011;32866;50.160;14.768;2023-04-09T01:45:41;36.83;;;22.37;;
46875;SDS011;32866;50.160;14.768;2023-04-09T01:48:08;30.13;;;20.17;;
46875;SDS011;32866;50.160;14.768;2023-04-09T01:50:34;30.83;;;20.42;;
46875;SDS011;32866;50.160;14.768;2023-04-09T01:53:00;34.28;;;20.27;;
46875;SDS011;32866;50.160;14.768;2023-04-09T01:57:51;36.20;;;20.80;;
46875;SDS011;32866;50.160;14.768;2023-04-09T02:00:17;31.40;;;20.83;;
46875;SDS011;32866;50.160;14.768;2023-04-09T02:02:48;32.88;;;21.00;;
46875;SDS011;32866;50.160;14.768;2023-04-09T02:05:20;35.63;;;22.23;;
46875;SDS011;32866;50.160;14.768;2023-04-09T02:07:52;32.37;;;19.67;;
46875;SDS011;32866;50.160;14.768;2023-04-09T02:10:21;35.47;;;22.73;;
46875;SDS011;32866;50.160;14.768;2023-04-09T02:12:50;33.10;;;20.80;;
46875;SDS011;32866;50.160;14.768;2023-04-09T02:15:18;35.20;;;19.57;;
46875;SDS011;32866;50.160;14.768;2023-04-09T02:17:45;32.87;;;21.50;;
46875;SDS011;32866;50.160;14.768;2023-04-09T02:20:15;33.15;;;20.50;;
46875;SDS011;32866;50.160;14.768;2023-04-09T02:22:41;32.33;;;19.03;;
46875;SDS011;32866;50.160;14.768;2023-04-09T02:25:07;33.65;;;21.45;;
46875;SDS011;32866;50.160;14.768;2023-04-09T02:27:32;30.80;;;20.13;;
46875;SDS011;32866;50.160;14.768;2023-04-09T02:29:58;31.30;;;19.90;;
46875;SDS011;32866;50.160;14.768;2023-04-09T02:32:23;32.55;;;20.67;;
46875;SDS011;32866;50.160;14.768;2023-04-09T02:34:48;33.33;;;20.77;;
46875;SDS011;32866;50.160;14.768;2023-04-09T02:37:14;37.40;;;21.73;;
46875;SDS011;32866;50.160;14.768;2023-04-09T02:39:39;37.33;;;22.92;;
46875;SDS011;32866;50.160;14.768;2023-04-09T02:42:10;37.05;;;19.90;;
46875;SDS011;32866;50.160;14.768;2023-04-09T02:44:36;35.60;;;22.63;;
46875;SDS011;32866;50.160;14.768;2023-04-09T02:47:01;32.42;;;20.42;;
46875;SDS011;32866;50.160;14.768;2023-04-09T02:49:27;40.45;;;22.75;;
46875;SDS011;32866;50.160;14.768;2023-04-09T02:51:52;36.60;;;20.70;;
46875;SDS011;32866;50.160;14.768;2023-04-09T02:54:17;38.33;;;21.58;;
46875;SDS011;32866;50.160;14.768;2023-04-09T02:56:43;33.78;;;22.02;;
46875;SDS011;32866;50.160;14.768;2023-04-09T02:59:08;33.58;;;21.50;;
46875;SDS011;32866;50.160;14.768;2023-04-09T03:01:33;35.35;;;21.52;;
46875;SDS011;32866;50.160;14.768;2023-04-09T03:03:59;32.65;;;20.33;;
46875;SDS011;32866;50.160;14.768;2023-04-09T03:06:25;36.63;;;21.37;;
46875;SDS011;32866;50.160;14.768;2023-04-09T03:08:51;33.08;;;21.13;;
46875;SDS011;32866;50.160;14.768;2023-04-09T03:11:16;34.20;;;21.35;;
46875;SDS011;32866;50.160;14.768;2023-04-09T03:13:41;36.30;;;21.70;;
46875;SDS011;32866;50.160;14.768;2023-04-09T03:16:07;35.08;;;21.02;;
46875;SDS011;32866;50.160;14.768;2023-04-09T03:18:34;34.90;;;20.97;;
46875;SDS011;32866;50.160;14.768;2023-04-09T03:21:03;39.63;;;23.13;;
46875;SDS011;32866;50.160;14.768;2023-04-09T03:23:29;34.07;;;20.13;;
46875;SDS011;32866;50.160;14.768;2023-04-09T03:25:59;32.73;;;20.63;;
46875;SDS011;32866;50.160;14.768;2023-04-09T03:28:25;38.83;;;21.33;;
46875;SDS011;32866;50.160;14.768;2023-04-09T03:30:50;34.03;;;22.85;;
46875;SDS011;32866;50.160;14.768;2023-04-09T03:33:16;37.67;;;21.85;;
46875;SDS011;32866;50.160;14.768;2023-04-09T03:35:41;34.97;;;22.38;;
46875;SDS011;32866;50.160;14.768;2023-04-09T03:38:07;37.40;;;21.77;;
46875;SDS011;32866;50.160;14.768;2023-04-09T03:40:32;37.50;;;22.20;;
46875;SDS011;32866;50.160;14.768;2023-04-09T03:42:57;32.83;;;20.25;;
46875;SDS011;32866;50.160;14.768;2023-04-09T03:45:23;32.20;;;19.80;;
46875;SDS011;32866;50.160;14.768;2023-04-09T03:47:48;33.47;;;21.70;;
46875;SDS011;32866;50.160;14.768;2023-04-09T03:50:14;39.42;;;22.63;;
46875;SDS011;32866;50.160;14.768;2023-04-09T03:52:39;37.13;;;22.15;;
46875;SDS011;32866;50.160;14.768;2023-04-09T03:55:05;38.70;;;21.73;;
46875;SDS011;32866;50.160;14.768;2023-04-09T03:57:31;36.95;;;21.88;;
46875;SDS011;32866;50.160;14.768;2023-04-09T03:59:56;31.63;;;18.90;;
46875;SDS011;32866;50.160;14.768;2023-04-09T04:02:21;37.40;;;22.40;;
46875;SDS011;32866;50.160;14.768;2023-04-09T04:04:47;36.17;;;21.88;;
46875;SDS011;32866;50.160;14.768;2023-04-09T04:07:12;39.78;;;22.65;;
46875;SDS011;32866;50.160;14.768;2023-04-09T04:09:37;36.40;;;24.35;;
46875;SDS011;32866;50.160;14.768;2023-04-09T04:12:03;35.35;;;20.80;;
46875;SDS011;32866;50.160;14.768;2023-04-09T04:14:28;37.33;;;21.88;;
46875;SDS011;32866;50.160;14.768;2023-04-09T04:16:54;34.65;;;21.38;;
46875;SDS011;32866;50.160;14.768;2023-04-09T04:19:19;36.05;;;20.45;;
46875;SDS011;32866;50.160;14.768;2023-04-09T04:21:45;37.25;;;23.63;;
46875;SDS011;32866;50.160;14.768;2023-04-09T04:24:10;40.55;;;22.67;;
46875;SDS011;32866;50.160;14.768;2023-04-09T04:26:36;38.28;;;22.85;;
46875;SDS011;32866;50.160;14.768;2023-04-09T04:29:01;36.03;;;22.42;;
46875;SDS011;32866;50.160;14.768;2023-04-09T04:31:27;33.50;;;22.30;;
46875;SDS011;32866;50.160;14.768;2023-04-09T04:33:52;42.38;;;22.98;;
46875;SDS011;32866;50.160;14.768;2023-04-09T04:36:18;34.22;;;20.48;;
46875;SDS011;32866;50.160;14.768;2023-04-09T04:38:43;30.77;;;20.90;;
46875;SDS011;32866;50.160;14.768;2023-04-09T04:41:09;33.33;;;21.45;;
46875;SDS011;32866;50.160;14.768;2023-04-09T04:43:35;37.60;;;22.00;;
46875;SDS011;32866;50.160;14.768;2023-04-09T04:46:00;35.42;;;21.98;;
46875;SDS011;32866;50.160;14.768;2023-04-09T04:48:27;36.53;;;21.92;;
46875;SDS011;32866;50.160;14.768;2023-04-09T04:50:53;34.47;;;21.63;;
46875;SDS011;32866;50.160;14.768;2023-04-09T04:53:23;36.20;;;21.70;;
46875;SDS011;32866;50.160;14.768;2023-04-09T04:55:48;37.42;;;21.92;;
46875;SDS011;32866;50.160;14.768;2023-04-09T04:58:14;36.13;;;21.48;;
46875;SDS011;32866;50.160;14.768;2023-04-09T05:00:40;37.70;;;21.45;;
46875;SDS011;32866;50.160;14.768;2023-04-09T05:03:05;34.00;;;20.00;;
46875;SDS011;32866;50.160;14.768;2023-04-09T05:05:30;34.47;;;21.38;;
46875;SDS011;32866;50.160;14.768;2023-04-09T05:07:56;35.83;;;22.80;;
46875;SDS011;32866;50.160;14.768;2023-04-09T05:10:21;34.50;;;23.45;;
46875;SDS011;32866;50.160;14.768;2023-04-09T05:12:46;35.15;;;19.88;;
46875;SDS011;32866;50.160;14.768;2023-04-09T05:15:12;44.78;;;23.55;;
46875;SDS011;32866;50.160;14.768;2023-04-09T05:17:38;32.17;;;19.83;;
46875;SDS011;32866;50.160;14.768;2023-04-09T05:20:06;33.13;;;21.03;;
46875;SDS011;32866;50.160;14.768;2023-04-09T05:22:32;36.60;;;21.13;;
46875;SDS011;32866;50.160;14.768;2023-04-09T05:24:57;35.03;;;21.45;;
46875;SDS011;32866;50.160;14.768;2023-04-09T05:27:23;37.28;;;21.92;;
46875;SDS011;32866;50.160;14.768;2023-04-09T05:29:50;34.77;;;20.63;;
46875;SDS011;32866;50.160;14.768;2023-04-09T05:32:15;39.53;;;22.67;;
46875;SDS011;32866;50.160;14.768;2023-04-09T05:34:40;35.03;;;21.75;;
46875;SDS011;32866;50.160;14.768;2023-04-09T05:37:06;41.00;;;22.63;;
46875;SDS011;32866;50.160;14.768;2023-04-09T05:39:31;32.42;;;20.58;;
46875;SDS011;32866;50.160;14.768;2023-04-09T05:41:57;33.42;;;22.65;;
46875;SDS011;32866;50.160;14.768;2023-04-09T05:44:22;33.92;;;22.13;;
46875;SDS011;32866;50.160;14.768;2023-04-09T05:46:47;36.38;;;20.63;;
46875;SDS011;32866;50.160;14.768;2023-04-09T05:49:13;33.58;;;21.70;;
46875;SDS011;32866;50.160;14.768;2023-04-09T05:51:38;37.05;;;22.33;;
46875;SDS011;32866;50.160;14.768;2023-04-09T05:54:03;34.78;;;20.75;;
46875;SDS011;32866;50.160;14.768;2023-04-09T05:56:29;31.92;;;21.20;;
46875;SDS011;32866;50.160;14.768;2023-04-09T05:58:54;36.50;;;22.08;;
46875;SDS011;32866;50.160;14.768;2023-04-09T06:01:20;37.70;;;21.52;;
46875;SDS011;32866;50.160;14.768;2023-04-09T06:03:45;36.28;;;21.52;;
46875;SDS011;32866;50.160;14.768;2023-04-09T06:06:11;40.20;;;22.42;;
46875;SDS011;32866;50.160;14.768;2023-04-09T06:08:37;37.05;;;23.45;;
46875;SDS011;32866;50.160;14.768;2023-04-09T06:11:02;36.88;;;22.67;;
46875;SDS011;32866;50.160;14.768;2023-04-09T06:13:28;39.33;;;25.45;;
46875;SDS011;32866;50.160;14.768;2023-04-09T06:15:53;34.08;;;22.15;;
46875;SDS011;32866;50.160;14.768;2023-04-09T06:18:18;36.55;;;21.90;;
46875;SDS011;32866;50.160;14.768;2023-04-09T06:20:44;36.03;;;21.25;;
46875;SDS011;32866;50.160;14.768;2023-04-09T06:23:09;39.63;;;21.85;;
46875;SDS011;32866;50.160;14.768;2023-04-09T06:25:41;31.50;;;21.73;;
46875;SDS011;32866;50.160;14.768;2023-04-09T06:28:06;41.00;;;21.97;;
46875;SDS011;32866;50.160;14.768;2023-04-09T06:30:31;38.97;;;20.83;;
46875;SDS011;32866;50.160;14.768;2023-04-09T06:32:57;30.90;;;20.90;;
46875;SDS011;32866;50.160;14.768;2023-04-09T06:35:22;36.05;;;20.77;;
46875;SDS011;32866;50.160;14.768;2023-04-09T06:37:48;36.22;;;21.10;;
46875;SDS011;32866;50.160;14.768;2023-04-09T06:40:13;31.98;;;20.27;;
46875;SDS011;32866;50.160;14.768;2023-04-09T06:42:38;35.75;;;21.20;;
46875;SDS011;32866;50.160;14.768;2023-04-09T06:45:04;34.55;;;21.70;;
46875;SDS011;32866;50.160;14.768;2023-04-09T06:47:33;37.77;;;21.70;;
46875;SDS011;32866;50.160;14.768;2023-04-09T06:49:59;37.87;;;23.40;;
46875;SDS011;32866;50.160;14.768;2023-04-09T06:52:25;36.20;;;22.13;;
46875;SDS011;32866;50.160;14.768;2023-04-09T06:54:50;38.40;;;23.23;;
46875;SDS011;32866;50.160;14.768;2023-04-09T06:57:16;40.42;;;23.02;;
46875;SDS011;32866;50.160;14.768;2023-04-09T06:59:42;34.03;;;21.67;;
46875;SDS011;32866;50.160;14.768;2023-04-09T07:02:07;35.58;;;22.38;;
46875;SDS011;32866;50.160;14.768;2023-04-09T07:04:33;32.20;;;20.58;;
46875;SDS011;32866;50.160;14.768;2023-04-09T07:06:58;33.63;;;20.88;;
46875;SDS011;32866;50.160;14.768;2023-04-09T07:09:24;35.03;;;21.15;;
46875;SDS011;32866;50.160;14.768;2023-04-09T07:11:49;34.85;;;22.05;;
46875;SDS011;32866;50.160;14.768;2023-04-09T07:14:14;35.40;;;21.65;;
46875;SDS011;32866;50.160;14.768;2023-04-09T07:16:40;32.03;;;21.05;;
46875;SDS011;32866;50.160;14.768;2023-04-09T07:19:05;32.42;;;19.77;;
46875;SDS011;32866;50.160;14.768;2023-04-09T07:21:31;33.75;;;21.58;;
46875;SDS011;32866;50.160;14.768;2023-04-09T07:23:57;37.92;;;22.30;;
46875;SDS011;32866;50.160;14.768;2023-04-09T07:26:22;33.10;;;21.23;;
46875;SDS011;32866;50.160;14.768;2023-04-09T07:28:48;36.90;;;21.75;;
46875;SDS011;32866;50.160;14.768;2023-04-09T07:31:13;35.90;;;22.15;;
46875;SDS011;32866;50.160;14.768;2023-04-09T07:33:38;32.97;;;20.73;;
46875;SDS011;32866;50.160;14.768;2023-04-09T07:36:04;33.45;;;21.67;;
46875;SDS011;32866;50.160;14.768;2023-04-09T07:40:55;32.13;;;21.40;;
46875;SDS011;32866;50.160;14.768;2023-04-09T07:43:21;31.25;;;20.00;;
46875;SDS011;32866;50.160;14.768;2023-04-09T07:45:49;29.92;;;18.40;;
46875;SDS011;32866;50.160;14.768;2023-04-09T07:48:15;31.63;;;19.90;;
46875;SDS011;32866;50.160;14.768;2023-04-09T07:50:41;32.88;;;20.65;;
46875;SDS011;32866;50.160;14.768;2023-04-09T07:53:06;27.63;;;17.85;;
46875;SDS011;32866;50.160;14.768;2023-04-09T07:55:32;29.77;;;18.17;;
46875;SDS011;32866;50.160;14.768;2023-04-09T07:57:57;26.92;;;18.75;;
46875;SDS011;32866;50.160;14.768;2023-04-09T08:00:22;24.80;;;16.75;;
46875;SDS011;32866;50.160;14.768;2023-04-09T08:02:48;23.48;;;16.00;;
46875;SDS011;32866;50.160;14.768;2023-04-09T08:05:13;23.90;;;15.93;;
46875;SDS011;32866;50.160;14.768;2023-04-09T08:07:38;23.63;;;16.65;;
46875;SDS011;32866;50.160;14.768;2023-04-09T08:10:04;24.52;;;17.58;;
46875;SDS011;32866;50.160;14.768;2023-04-09T08:12:30;25.10;;;15.95;;
46875;SDS011;32866;50.160;14.768;2023-04-09T08:14:56;29.27;;;18.65;;
46875;SDS011;32866;50.160;14.768;2023-04-09T08:17:21;29.55;;;19.70;;
46875;SDS011;32866;50.160;14.768;2023-04-09T08:19:47;28.65;;;17.88;;
46875;SDS011;32866;50.160;14.768;2023-04-09T08:22:13;26.03;;;17.90;;
46875;SDS011;32866;50.160;14.768;2023-04-09T08:24:41;31.45;;;18.42;;
46875;SDS011;32866;50.160;14.768;2023-04-09T08:27:07;29.00;;;19.17;;
46875;SDS011;32866;50.160;14.768;2023-04-09T08:29:33;27.90;;;18.42;;
46875;SDS011;32866;50.160;14.768;2023-04-09T08:31:59;30.55;;;19.80;;
46875;SDS011;32866;50.160;14.768;2023-04-09T08:34:24;28.95;;;18.00;;
46875;SDS011;32866;50.160;14.768;2023-04-09T08:36:49;25.88;;;16.58;;
46875;SDS011;32866;50.160;14.768;2023-04-09T08:39:33;30.27;;;19.67;;
46875;SDS011;32866;50.160;14.768;2023-04-09T08:42:00;28.90;;;17.97;;
46875;SDS011;32866;50.160;14.768;2023-04-09T08:46:52;26.27;;;16.67;;
46875;SDS011;32866;50.160;14.768;2023-04-09T08:51:46;26.80;;;16.77;;
46875;SDS011;32866;50.160;14.768;2023-04-09T08:54:16;28.80;;;18.60;;
46875;SDS011;32866;50.160;14.768;2023-04-09T08:56:44;27.50;;;17.83;;
46875;SDS011;32866;50.160;14.768;2023-04-09T08:59:15;26.90;;;17.57;;
46875;SDS011;32866;50.160;14.768;2023-04-09T09:01:42;30.35;;;17.48;;
46875;SDS011;32866;50.160;14.768;2023-04-09T09:04:08;22.63;;;15.90;;
46875;SDS011;32866;50.160;14.768;2023-04-09T09:06:35;23.63;;;16.52;;
46875;SDS011;32866;50.160;14.768;2023-04-09T09:11:41;24.73;;;16.08;;
46875;SDS011;32866;50.160;14.768;2023-04-09T09:14:09;21.98;;;16.42;;
46875;SDS011;32866;50.160;14.768;2023-04-09T09:16:39;19.55;;;15.27;;
46875;SDS011;32866;50.160;14.768;2023-04-09T09:19:07;20.23;;;15.13;;
46875;SDS011;32866;50.160;14.768;2023-04-09T09:21:34;21.05;;;14.63;;
46875;SDS011;32866;50.160;14.768;2023-04-09T09:24:00;18.98;;;14.15;;
46875;SDS011;32866;50.160;14.768;2023-04-09T09:26:27;24.63;;;16.77;;
46875;SDS011;32866;50.160;14.768;2023-04-09T09:28:54;25.77;;;16.70;;
46875;SDS011;32866;50.160;14.768;2023-04-09T09:31:23;22.08;;;16.63;;
46875;SDS011;32866;50.160;14.768;2023-04-09T09:33:48;21.45;;;16.25;;
46875;SDS011;32866;50.160;14.768;2023-04-09T09:36:15;22.73;;;16.48;;
46875;SDS011;32866;50.160;14.768;2023-04-09T09:38:54;22.30;;;15.80;;
46875;SDS011;32866;50.160;14.768;2023-04-09T09:41:21;20.75;;;15.00;;
46875;SDS011;32866;50.160;14.768;2023-04-09T09:43:47;25.70;;;16.58;;
46875;SDS011;32866;50.160;14.768;2023-04-09T09:48:38;23.52;;;16.00;;
46875;SDS011;32866;50.160;14.768;2023-04-09T09:51:07;25.38;;;17.30;;
46875;SDS011;32866;50.160;14.768;2023-04-09T09:53:35;24.60;;;16.85;;
46875;SDS011;32866;50.160;14.768;2023-04-09T09:56:03;30.70;;;18.20;;
46875;SDS011;32866;50.160;14.768;2023-04-09T09:58:36;23.48;;;16.90;;
46875;SDS011;32866;50.160;14.768;2023-04-09T10:01:12;22.17;;;16.30;;
46875;SDS011;32866;50.160;14.768;2023-04-09T10:03:41;23.65;;;17.45;;
46875;SDS011;32866;50.160;14.768;2023-04-09T10:06:08;23.52;;;17.75;;
46875;SDS011;32866;50.160;14.768;2023-04-09T10:08:35;26.48;;;18.83;;
46875;SDS011;32866;50.160;14.768;2023-04-09T10:11:02;25.30;;;16.25;;
46875;SDS011;32866;50.160;14.768;2023-04-09T10:16:03;24.00;;;17.23;;
46875;SDS011;32866;50.160;14.768;2023-04-09T10:18:30;24.40;;;15.15;;
46875;SDS011;32866;50.160;14.768;2023-04-09T10:23:48;23.75;;;16.45;;
46875;SDS011;32866;50.160;14.768;2023-04-09T10:26:16;25.58;;;16.63;;
46875;SDS011;32866;50.160;14.768;2023-04-09T10:28:42;22.95;;;17.02;;
46875;SDS011;32866;50.160;14.768;2023-04-09T10:31:07;21.13;;;15.65;;
46875;SDS011;32866;50.160;14.768;2023-04-09T10:33:34;22.63;;;15.30;;
46875;SDS011;32866;50.160;14.768;2023-04-09T10:36:10;23.80;;;17.30;;
46875;SDS011;32866;50.160;14.768;2023-04-09T10:38:37;23.40;;;16.93;;
46875;SDS011;32866;50.160;14.768;2023-04-09T10:43:59;24.57;;;17.20;;
46875;SDS011;32866;50.160;14.768;2023-04-09T10:46:29;21.55;;;15.98;;
46875;SDS011;32866;50.160;14.768;2023-04-09T10:49:08;20.90;;;14.87;;
46875;SDS011;32866;50.160;14.768;2023-04-09T10:51:40;23.43;;;15.67;;
46875;SDS011;32866;50.160;14.768;2023-04-09T10:59:33;22.57;;;15.57;;
46875;SDS011;32866;50.160;14.768;2023-04-09T11:02:00;25.60;;;16.33;;
46875;SDS011;32866;50.160;14.768;2023-04-09T11:07:00;25.47;;;17.70;;
46875;SDS011;32866;50.160;14.768;2023-04-09T11:09:28;25.83;;;17.67;;
46875;SDS011;32866;50.160;14.768;2023-04-09T11:11:53;23.27;;;16.23;;
46875;SDS011;32866;50.160;14.768;2023-04-09T11:14:19;22.85;;;15.73;;
46875;SDS011;32866;50.160;14.768;2023-04-09T11:16:46;23.75;;;16.45;;
46875;SDS011;32866;50.160;14.768;2023-04-09T11:19:11;28.30;;;16.40;;
46875;SDS011;32866;50.160;14.768;2023-04-09T11:21:40;23.83;;;16.92;;
46875;SDS011;32866;50.160;14.768;2023-04-09T11:24:11;24.47;;;17.33;;
46875;SDS011;32866;50.160;14.768;2023-04-09T11:26:36;25.10;;;16.63;;
46875;SDS011;32866;50.160;14.768;2023-04-09T11:29:05;22.85;;;16.17;;
46875;SDS011;32866;50.160;14.768;2023-04-09T11:31:32;26.20;;;18.23;;
46875;SDS011;32866;50.160;14.768;2023-04-09T11:33:57;26.15;;;19.23;;
46875;SDS011;32866;50.160;14.768;2023-04-09T11:36:23;25.98;;;17.40;;
46875;SDS011;32866;50.160;14.768;2023-04-09T11:38:48;26.65;;;18.48;;
46875;SDS011;32866;50.160;14.768;2023-04-09T11:41:15;28.07;;;17.47;;
46875;SDS011;32866;50.160;14.768;2023-04-09T11:43:40;29.55;;;17.95;;
46875;SDS011;32866;50.160;14.768;2023-04-09T11:46:06;29.17;;;19.98;;
46875;SDS011;32866;50.160;14.768;2023-04-09T11:50:58;24.63;;;16.73;;
46875;SDS011;32866;50.160;14.768;2023-04-09T11:53:26;23.73;;;17.30;;
46875;SDS011;32866;50.160;14.768;2023-04-09T11:55:55;25.90;;;17.57;;
46875;SDS011;32866;50.160;14.768;2023-04-09T11:58:24;22.25;;;15.77;;
46875;SDS011;32866;50.160;14.768;2023-04-09T12:00:53;25.23;;;17.30;;
46875;SDS011;32866;50.160;14.768;2023-04-09T12:03:29;27.30;;;17.57;;
46875;SDS011;32866;50.160;14.768;2023-04-09T12:05:56;23.90;;;16.30;;
46875;SDS011;32866;50.160;14.768;2023-04-09T12:08:24;24.67;;;17.30;;
46875;SDS011;32866;50.160;14.768;2023-04-09T12:10:51;24.30;;;16.87;;
46875;SDS011;32866;50.160;14.768;2023-04-09T12:13:17;27.63;;;19.08;;
46875;SDS011;32866;50.160;14.768;2023-04-09T12:15:42;25.00;;;18.25;;
46875;SDS011;32866;50.160;14.768;2023-04-09T12:18:08;27.35;;;17.73;;
46875;SDS011;32866;50.160;14.768;2023-04-09T12:23:03;24.17;;;17.23;;
46875;SDS011;32866;50.160;14.768;2023-04-09T12:25:30;21.60;;;16.20;;
46875;SDS011;32866;50.160;14.768;2023-04-09T12:28:02;25.40;;;17.77;;
46875;SDS011;32866;50.160;14.768;2023-04-09T12:30:28;24.20;;;17.20;;
46875;SDS011;32866;50.160;14.768;2023-04-09T12:32:53;23.77;;;16.65;;
46875;SDS011;32866;50.160;14.768;2023-04-09T12:35:28;23.27;;;18.27;;
46875;SDS011;32866;50.160;14.768;2023-04-09T12:37:54;22.30;;;17.10;;
46875;SDS011;32866;50.160;14.768;2023-04-09T12:40:20;22.52;;;15.90;;
46875;SDS011;32866;50.160;14.768;2023-04-09T12:42:46;22.30;;;15.70;;
46875;SDS011;32866;50.160;14.768;2023-04-09T12:45:13;22.90;;;16.30;;
46875;SDS011;32866;50.160;14.768;2023-04-09T12:47:39;22.58;;;16.38;;
46875;SDS011;32866;50.160;14.768;2023-04-09T12:50:06;22.02;;;17.42;;
46875;SDS011;32866;50.160;14.768;2023-04-09T12:55:07;23.67;;;17.02;;
46875;SDS011;32866;50.160;14.768;2023-04-09T12:57:33;26.05;;;15.77;;
46875;SDS011;32866;50.160;14.768;2023-04-09T12:59:59;21.48;;;16.42;;
46875;SDS011;32866;50.160;14.768;2023-04-09T13:02:24;23.38;;;16.58;;
46875;SDS011;32866;50.160;14.768;2023-04-09T13:04:50;24.33;;;18.35;;
46875;SDS011;32866;50.160;14.768;2023-04-09T13:07:17;27.70;;;18.48;;
46875;SDS011;32866;50.160;14.768;2023-04-09T13:12:09;24.57;;;15.77;;
46875;SDS011;32866;50.160;14.768;2023-04-09T13:17:01;20.33;;;15.70;;
46875;SDS011;32866;50.160;14.768;2023-04-09T13:19:26;24.77;;;16.58;;
46875;SDS011;32866;50.160;14.768;2023-04-09T13:21:52;22.67;;;15.40;;
46875;SDS011;32866;50.160;14.768;2023-04-09T13:24:17;21.45;;;15.60;;
46875;SDS011;32866;50.160;14.768;2023-04-09T13:26:42;21.98;;;17.25;;
46875;SDS011;32866;50.160;14.768;2023-04-09T13:29:08;23.52;;;16.65;;
46875;SDS011;32866;50.160;14.768;2023-04-09T13:31:34;23.35;;;16.75;;
46875;SDS011;32866;50.160;14.768;2023-04-09T13:34:00;20.23;;;15.87;;
46875;SDS011;32866;50.160;14.768;2023-04-09T13:36:26;25.10;;;16.83;;
46875;SDS011;32866;50.160;14.768;2023-04-09T13:38:52;21.33;;;15.48;;
46875;SDS011;32866;50.160;14.768;2023-04-09T13:41:18;23.63;;;16.90;;
46875;SDS011;32866;50.160;14.768;2023-04-09T13:43:43;22.55;;;16.05;;
46875;SDS011;32866;50.160;14.768;2023-04-09T13:46:09;25.67;;;16.73;;
46875;SDS011;32866;50.160;14.768;2023-04-09T13:48:34;21.17;;;16.17;;
46875;SDS011;32866;50.160;14.768;2023-04-09T13:50:59;26.33;;;16.77;;
46875;SDS011;32866;50.160;14.768;2023-04-09T13:53:25;24.23;;;16.23;;
46875;SDS011;32866;50.160;14.768;2023-04-09T13:55:50;21.90;;;16.27;;
46875;SDS011;32866;50.160;14.768;2023-04-09T13:58:16;24.30;;;16.38;;
46875;SDS011;32866;50.160;14.768;2023-04-09T14:00:41;22.02;;;17.08;;
46875;SDS011;32866;50.160;14.768;2023-04-09T14:03:07;22.48;;;17.00;;
46875;SDS011;32866;50.160;14.768;2023-04-09T14:05:33;22.58;;;15.98;;
46875;SDS011;32866;50.160;14.768;2023-04-09T14:07:58;18.95;;;15.07;;
46875;SDS011;32866;50.160;14.768;2023-04-09T14:10:23;22.95;;;16.15;;
46875;SDS011;32866;50.160;14.768;2023-04-09T14:12:49;18.77;;;14.00;;
46875;SDS011;32866;50.160;14.768;2023-04-09T14:15:14;24.73;;;17.73;;
46875;SDS011;32866;50.160;14.768;2023-04-09T14:17:41;23.10;;;16.10;;
46875;SDS011;32866;50.160;14.768;2023-04-09T14:20:07;22.80;;;16.42;;
46875;SDS011;32866;50.160;14.768;2023-04-09T14:22:33;23.67;;;17.52;;
46875;SDS011;32866;50.160;14.768;2023-04-09T14:24:58;23.00;;;16.52;;
46875;SDS011;32866;50.160;14.768;2023-04-09T14:27:24;22.90;;;15.27;;
46875;SDS011;32866;50.160;14.768;2023-04-09T14:29:50;24.67;;;18.75;;
46875;SDS011;32866;50.160;14.768;2023-04-09T14:32:15;24.60;;;16.35;;
46875;SDS011;32866;50.160;14.768;2023-04-09T14:34:41;25.05;;;16.95;;
46875;SDS011;32866;50.160;14.768;2023-04-09T14:37:06;24.00;;;17.38;;
46875;SDS011;32866;50.160;14.768;2023-04-09T14:39:32;22.77;;;15.93;;
46875;SDS011;32866;50.160;14.768;2023-04-09T14:41:57;23.90;;;16.15;;
46875;SDS011;32866;50.160;14.768;2023-04-09T14:44:23;22.45;;;16.45;;
46875;SDS011;32866;50.160;14.768;2023-04-09T14:46:51;25.23;;;17.30;;
46875;SDS011;32866;50.160;14.768;2023-04-09T14:49:19;21.57;;;16.50;;
46875;SDS011;32866;50.160;14.768;2023-04-09T14:51:44;26.48;;;16.67;;
46875;SDS011;32866;50.160;14.768;2023-04-09T14:54:10;27.15;;;16.73;;
46875;SDS011;32866;50.160;14.768;2023-04-09T14:56:35;23.13;;;16.58;;